createdAt,value
2023-08-24T00:00:33.451Z,1.90
2023-08-24T00:03:22.524Z,2.10
2023-08-24T00:05:50.415Z,2.20
2023-08-24T00:08:18.318Z,1.80
2023-08-24T00:10:49.019Z,2.20
2023-08-24T00:13:16.752Z,1.90
2023-08-24T00:15:46.167Z,2.40
2023-08-24T00:18:14.131Z,2.10
2023-08-24T00:20:42.587Z,2.40
2023-08-24T00:23:10.157Z,2.20
2023-08-24T00:25:37.903Z,2.30
2023-08-24T00:28:06.097Z,2.20
2023-08-24T00:30:33.848Z,2.10
2023-08-24T00:33:01.495Z,2.20
2023-08-24T00:35:29.255Z,2.30
2023-08-24T00:37:56.837Z,2.10
2023-08-24T00:40:26.074Z,1.90
2023-08-24T00:42:54.573Z,2.10
2023-08-24T00:45:22.437Z,2.00
2023-08-24T00:47:51.124Z,2.10
2023-08-24T00:50:20.497Z,2.10
2023-08-24T00:52:50.460Z,2.10
2023-08-24T00:55:18.460Z,1.90
2023-08-24T00:57:46.160Z,2.20
2023-08-24T01:00:14.724Z,2.10
2023-08-24T01:02:42.561Z,2.20
2023-08-24T01:05:10.391Z,2.10
2023-08-24T01:07:40.783Z,2.10
2023-08-24T01:10:11.591Z,2.20
2023-08-24T01:12:58.295Z,2.30
2023-08-24T01:15:52.897Z,2.00
2023-08-24T01:18:23.735Z,2.10
2023-08-24T01:20:55.810Z,2.00
2023-08-24T01:23:38.524Z,2.00
2023-08-24T01:26:18.960Z,2.10
2023-08-24T01:28:47.736Z,2.00
2023-08-24T01:31:19.799Z,1.80
2023-08-24T01:33:50.017Z,2.20
2023-08-24T01:36:18.064Z,2.10
2023-08-24T01:38:54.894Z,2.10
2023-08-24T01:41:39.603Z,2.10
2023-08-24T01:44:09.882Z,2.20
2023-08-24T01:46:38.805Z,1.90
2023-08-24T01:49:09.446Z,2.00
2023-08-24T01:51:37.498Z,2.20
2023-08-24T01:54:05.749Z,2.20
2023-08-24T01:56:33.410Z,2.20
2023-08-24T01:59:01.091Z,2.20
2023-08-24T02:01:28.832Z,2.30
2023-08-24T02:03:57.521Z,2.10
2023-08-24T02:06:25.626Z,2.20
2023-08-24T02:08:53.405Z,2.00
2023-08-24T02:11:21.048Z,2.10
2023-08-24T02:13:48.608Z,2.30
2023-08-24T02:16:16.700Z,2.20
2023-08-24T02:18:44.379Z,2.00
2023-08-24T02:21:16.143Z,2.20
2023-08-24T02:23:43.829Z,2.30
2023-08-24T02:26:11.444Z,2.30
2023-08-24T02:28:39.935Z,1.70
2023-08-24T02:31:07.657Z,2.10
2023-08-24T02:33:36.352Z,2.10
2023-08-24T02:36:05.268Z,2.20
2023-08-24T02:38:32.862Z,2.10
2023-08-24T02:41:04.229Z,2.50
2023-08-24T02:43:32.566Z,2.10
2023-08-24T02:46:05.549Z,2.20
2023-08-24T02:51:05.700Z,2.40
2023-08-24T02:53:33.571Z,2.10
2023-08-24T02:56:02.602Z,2.10
2023-08-24T02:58:31.044Z,2.30
2023-08-24T03:00:58.689Z,2.50
2023-08-24T03:03:26.538Z,2.40
2023-08-24T03:05:54.360Z,2.60
2023-08-24T03:08:22.095Z,2.50
2023-08-24T03:10:49.879Z,2.40
2023-08-24T03:13:18.045Z,2.10
2023-08-24T03:15:45.930Z,2.10
2023-08-24T03:18:15.994Z,2.50
2023-08-24T03:20:46.138Z,2.30
2023-08-24T03:23:16.373Z,2.10
2023-08-24T03:25:44.879Z,2.10
2023-08-24T03:28:12.821Z,2.30
2023-08-24T03:30:47.451Z,2.20
2023-08-24T03:33:15.304Z,2.20
2023-08-24T03:35:43.724Z,2.20
2023-08-24T03:38:11.680Z,2.20
2023-08-24T03:40:39.346Z,2.20
2023-08-24T03:43:06.986Z,2.50
2023-08-24T03:45:34.613Z,2.10
2023-08-24T03:48:02.381Z,2.40
2023-08-24T03:50:30.125Z,2.10
2023-08-24T03:52:57.963Z,2.20
2023-08-24T03:55:25.760Z,2.00
2023-08-24T03:57:55.334Z,1.70
2023-08-24T04:00:27.256Z,1.90
2023-08-24T04:02:55.315Z,1.80
2023-08-24T04:05:25.836Z,2.00
2023-08-24T04:07:54.492Z,1.90
2023-08-24T04:10:22.303Z,2.10
2023-08-24T04:12:50.078Z,1.90
2023-08-24T04:15:17.646Z,1.60
2023-08-24T04:17:45.565Z,1.70
2023-08-24T04:20:13.365Z,1.70
2023-08-24T04:22:41.234Z,1.80
2023-08-24T04:25:09.543Z,1.70
2023-08-24T04:27:38.217Z,1.90
2023-08-24T04:30:06.876Z,1.80
2023-08-24T04:32:34.758Z,1.80
2023-08-24T04:35:02.356Z,1.40
2023-08-24T04:37:30.108Z,1.80
2023-08-24T04:39:57.675Z,1.90
2023-08-24T04:42:25.970Z,1.90
2023-08-24T04:44:53.588Z,1.40
2023-08-24T04:47:21.242Z,1.80
2023-08-24T04:49:48.886Z,1.80
2023-08-24T04:52:16.575Z,1.70
2023-08-24T04:54:44.145Z,1.50
2023-08-24T04:57:11.825Z,1.50
2023-08-24T04:59:39.555Z,1.80
2023-08-24T05:02:07.434Z,1.70
2023-08-24T05:04:35.158Z,1.60
2023-08-24T05:07:02.882Z,1.60
2023-08-24T05:09:30.540Z,1.80
2023-08-24T05:11:58.172Z,1.60
2023-08-24T05:14:25.784Z,2.00
2023-08-24T05:16:53.460Z,1.40
2023-08-24T05:19:21.187Z,1.70
2023-08-24T05:21:48.849Z,1.50
2023-08-24T05:24:16.406Z,1.40
2023-08-24T05:26:44.905Z,1.50
2023-08-24T05:29:26.437Z,1.40
2023-08-24T05:31:57.395Z,1.60
2023-08-24T05:34:25.745Z,1.60
2023-08-24T05:36:54.403Z,1.60
2023-08-24T05:39:22.021Z,1.60
2023-08-24T05:42:22.628Z,1.50
2023-08-24T05:44:51.347Z,1.70
2023-08-24T05:47:19.081Z,1.70
2023-08-24T05:49:46.738Z,1.80
2023-08-24T05:52:14.361Z,1.60
2023-08-24T05:54:42.044Z,1.50
2023-08-24T05:57:09.654Z,2.00
2023-08-24T05:59:37.333Z,1.50
2023-08-24T06:02:05.056Z,1.70
2023-08-24T06:04:32.973Z,1.60
2023-08-24T06:07:01.103Z,2.00
2023-08-24T06:09:28.803Z,1.70
2023-08-24T06:11:56.510Z,1.70
2023-08-24T06:14:24.072Z,1.80
2023-08-24T06:16:54.187Z,1.80
2023-08-24T06:19:22.227Z,1.80
2023-08-24T06:21:50.030Z,1.40
2023-08-24T06:24:17.749Z,1.70
2023-08-24T06:26:45.314Z,1.50
2023-08-24T06:29:13.262Z,1.70
2023-08-24T06:31:40.961Z,2.00
2023-08-24T06:34:10.970Z,1.70
2023-08-24T06:36:38.558Z,1.50
2023-08-24T06:39:06.640Z,1.70
2023-08-24T06:41:36.163Z,1.60
2023-08-24T06:44:05.427Z,1.60
2023-08-24T06:46:33.147Z,1.90
2023-08-24T06:49:00.790Z,1.70
2023-08-24T06:51:32.211Z,1.40
2023-08-24T06:53:59.850Z,1.30
2023-08-24T06:56:27.490Z,1.40
2023-08-24T06:58:55.103Z,1.50
2023-08-24T07:01:22.945Z,1.80
2023-08-24T07:03:50.634Z,1.80
2023-08-24T07:06:18.394Z,1.20
2023-08-24T07:08:48.304Z,1.60
2023-08-24T07:11:16.082Z,1.20
2023-08-24T07:13:43.799Z,1.60
2023-08-24T07:16:11.442Z,1.60
2023-08-24T07:18:39.085Z,1.40
2023-08-24T07:21:06.690Z,1.50
2023-08-24T07:23:34.681Z,1.50
2023-08-24T07:26:02.320Z,1.40
2023-08-24T07:28:30.943Z,1.40
2023-08-24T07:30:58.794Z,1.50
2023-08-24T07:33:26.569Z,1.20
2023-08-24T07:35:54.196Z,1.40
2023-08-24T07:38:22.267Z,1.70
2023-08-24T07:40:50.251Z,1.30
2023-08-24T07:43:17.969Z,1.60
2023-08-24T07:45:45.711Z,1.30
2023-08-24T07:48:13.719Z,1.30
2023-08-24T07:50:41.450Z,1.50
2023-08-24T07:53:09.875Z,1.60
2023-08-24T07:55:37.538Z,1.20
2023-08-24T07:58:05.101Z,1.40
2023-08-24T08:00:32.836Z,1.70
2023-08-24T08:03:00.535Z,1.50
2023-08-24T08:05:28.536Z,1.20
2023-08-24T08:07:56.231Z,1.20
2023-08-24T08:10:23.867Z,1.20
2023-08-24T08:12:51.551Z,1.20
2023-08-24T08:15:19.316Z,1.40
2023-08-24T08:17:47.155Z,1.20
2023-08-24T08:20:15.360Z,1.30
2023-08-24T08:22:42.908Z,1.20
2023-08-24T08:25:10.538Z,1.30
2023-08-24T08:27:38.502Z,1.70
2023-08-24T08:30:07.103Z,1.20
2023-08-24T08:32:34.744Z,1.30
2023-08-24T08:35:05.075Z,1.50
2023-08-24T08:37:36.982Z,1.50
2023-08-24T08:40:08.272Z,1.40
2023-08-24T08:42:36.913Z,1.40
2023-08-24T08:45:10.519Z,1.40
2023-08-24T08:47:39.365Z,1.40
2023-08-24T08:50:07.578Z,1.60
2023-08-24T08:52:35.275Z,1.50
2023-08-24T08:55:08.100Z,1.40
2023-08-24T08:57:41.338Z,1.60
2023-08-24T09:00:14.015Z,1.30
2023-08-24T09:02:45.543Z,1.30
2023-08-24T09:05:13.680Z,1.30
2023-08-24T09:07:41.657Z,1.10
2023-08-24T09:10:09.612Z,1.30
2023-08-24T09:12:37.344Z,1.20
2023-08-24T09:15:08.797Z,1.10
2023-08-24T09:17:36.460Z,1.40
2023-08-24T09:20:08.339Z,1.20
2023-08-24T09:22:40.833Z,1.20
2023-08-24T09:25:11.310Z,1.20
2023-08-24T09:27:39.350Z,1.40
2023-08-24T09:30:08.350Z,1.20
2023-08-24T09:32:36.475Z,1.20
2023-08-24T09:35:09.166Z,1.30
2023-08-24T09:37:37.923Z,1.20
2023-08-24T09:40:08.834Z,1.40
2023-08-24T09:42:42.811Z,1.30
2023-08-24T09:45:15.058Z,1.10
2023-08-24T09:47:47.739Z,1.40
2023-08-24T09:50:15.648Z,1.40
2023-08-24T09:52:44.153Z,1.40
2023-08-24T09:55:15.324Z,1.20
2023-08-24T09:57:43.705Z,1.10
2023-08-24T10:00:17.450Z,1.20
2023-08-24T10:02:55.165Z,1.10
2023-08-24T10:07:59.331Z,0.90
2023-08-24T10:10:29.426Z,0.80
2023-08-24T10:13:11.571Z,0.90
2023-08-24T10:15:47.378Z,0.80
2023-08-24T10:18:17.677Z,0.80
2023-08-24T10:20:46.773Z,0.70
2023-08-24T10:23:16.830Z,0.70
2023-08-24T10:25:46.778Z,0.80
2023-08-24T10:28:17.428Z,0.80
2023-08-24T10:30:46.872Z,0.70
2023-08-24T10:33:16.585Z,0.60
2023-08-24T10:35:46.284Z,0.80
2023-08-24T10:38:34.883Z,0.60
2023-08-24T10:41:05.306Z,0.80
2023-08-24T10:43:38.274Z,0.80
2023-08-24T10:48:43.460Z,0.70
2023-08-24T10:51:27.779Z,0.80
2023-08-24T10:54:03.906Z,0.90
2023-08-24T10:56:39.984Z,0.70
2023-08-24T10:59:14.029Z,0.70
2023-08-24T11:01:43.633Z,0.80
2023-08-24T11:04:12.464Z,0.70
2023-08-24T11:06:57.281Z,0.70
2023-08-24T11:09:25.517Z,0.70
2023-08-24T11:12:06.993Z,0.70
2023-08-24T11:14:52.520Z,0.70
2023-08-24T11:17:22.574Z,0.80
2023-08-24T11:19:51.778Z,0.90
2023-08-24T11:22:19.680Z,0.80
2023-08-24T11:24:48.024Z,0.70
2023-08-24T11:27:17.186Z,0.70
2023-08-24T11:29:44.992Z,0.90
2023-08-24T11:32:12.807Z,0.90
2023-08-24T11:34:40.630Z,0.90
2023-08-24T11:37:19.761Z,0.80
2023-08-24T11:39:47.352Z,0.80
2023-08-24T11:42:15.195Z,0.80
2023-08-24T11:44:50.467Z,0.90
2023-08-24T11:47:21.368Z,0.90
2023-08-24T11:49:49.286Z,0.80
2023-08-24T11:52:18.326Z,0.90
2023-08-24T11:54:46.730Z,0.80
2023-08-24T11:57:14.492Z,0.90
2023-08-24T11:59:43.161Z,1.00
2023-08-24T12:02:12.280Z,0.90
2023-08-24T12:04:40.957Z,0.80
2023-08-24T12:07:12.881Z,0.80
2023-08-24T12:09:41.541Z,0.80
2023-08-24T12:12:16.774Z,0.90
2023-08-24T12:14:46.096Z,1.00
2023-08-24T12:17:14.772Z,0.80
2023-08-24T12:20:03.145Z,0.90
2023-08-24T12:22:30.773Z,1.10
2023-08-24T12:24:58.719Z,1.30
2023-08-24T12:27:28.374Z,1.00
2023-08-24T12:30:01.927Z,1.20
2023-08-24T12:32:45.219Z,1.10
2023-08-24T12:35:16.626Z,1.00
2023-08-24T12:37:44.757Z,0.80
2023-08-24T12:40:13.766Z,1.20
2023-08-24T12:42:41.657Z,0.90
2023-08-24T12:45:09.621Z,1.00
2023-08-24T12:47:39.010Z,0.60
2023-08-24T12:50:07.602Z,0.50
2023-08-24T12:52:35.158Z,0.60
2023-08-24T12:55:04.466Z,0.80
2023-08-24T12:57:32.078Z,0.80
2023-08-24T13:00:00.761Z,0.80
2023-08-24T13:02:37.140Z,0.60
2023-08-24T13:05:07.788Z,0.40
2023-08-24T13:07:36.476Z,0.40
2023-08-24T13:10:05.844Z,0.50
2023-08-24T13:12:35.313Z,0.60
2023-08-24T13:15:03.980Z,0.70
2023-08-24T13:17:32.019Z,0.80
2023-08-24T13:19:59.830Z,0.50
2023-08-24T13:22:27.588Z,0.50
2023-08-24T13:24:55.392Z,0.50
2023-08-24T13:27:22.982Z,0.60
2023-08-24T13:29:50.825Z,1.00
2023-08-24T13:32:19.802Z,0.80
2023-08-24T13:34:47.418Z,0.70
2023-08-24T13:37:15.066Z,0.90
2023-08-24T13:39:42.729Z,1.20
2023-08-24T13:42:10.295Z,1.40
2023-08-24T13:44:38.742Z,1.30
2023-08-24T13:47:07.296Z,1.40
2023-08-24T13:49:40.456Z,1.00
2023-08-24T13:52:09.326Z,1.20
2023-08-24T13:54:37.079Z,0.30
2023-08-24T13:57:04.818Z,0.40
2023-08-24T13:59:33.591Z,0.10
2023-08-24T14:02:01.314Z,0.20
2023-08-24T14:04:28.958Z,0.30
2023-08-24T14:06:56.644Z,0.20
2023-08-24T14:09:24.198Z,0.20
2023-08-24T14:11:51.750Z,0.20
2023-08-24T14:14:19.447Z,0.20
2023-08-24T14:16:48.866Z,0.20
2023-08-24T14:19:16.872Z,0.20
2023-08-24T14:21:45.674Z,0.10
2023-08-24T14:24:13.471Z,0.10
2023-08-24T14:26:46.350Z,0.10
2023-08-24T14:29:15.389Z,0.10
2023-08-24T14:31:43.290Z,0.20
2023-08-24T14:34:11.060Z,0.20
2023-08-24T14:36:38.640Z,0.10
2023-08-24T14:39:06.307Z,0.30
2023-08-24T14:41:34.066Z,0.30
2023-08-24T14:44:02.584Z,0.50
2023-08-24T14:46:30.277Z,0.70
2023-08-24T14:48:58.113Z,0.20
2023-08-24T14:51:25.831Z,0.30
2023-08-24T14:53:53.382Z,0.60
2023-08-24T14:56:21.764Z,0.50
2023-08-24T14:58:49.392Z,0.90
2023-08-24T15:01:17.289Z,1.40
2023-08-24T15:03:44.941Z,1.70
2023-08-24T15:06:12.578Z,1.80
2023-08-24T15:08:42.115Z,1.40
2023-08-24T15:11:09.832Z,1.50
2023-08-24T15:13:39.108Z,1.00
2023-08-24T15:16:06.714Z,0.70
2023-08-24T15:18:34.409Z,0.90
2023-08-24T15:21:02.483Z,1.20
2023-08-24T15:23:32.018Z,1.60
2023-08-24T15:26:01.443Z,1.00
2023-08-24T15:29:02.066Z,0.70
2023-08-24T15:31:29.794Z,0.60
2023-08-24T15:33:57.536Z,0.30
2023-08-24T15:36:25.195Z,0.30
2023-08-24T15:38:52.799Z,0.40
2023-08-24T15:41:20.480Z,0.30
2023-08-24T15:43:48.064Z,0.40
2023-08-24T15:46:16.127Z,0.40
2023-08-24T15:48:44.144Z,0.30
2023-08-24T15:51:12.103Z,0.40
2023-08-24T15:53:40.064Z,0.90
2023-08-24T15:56:07.681Z,0.30
2023-08-24T15:58:35.530Z,0.30
2023-08-24T16:01:04.258Z,0.30
2023-08-24T16:03:32.234Z,0.40
2023-08-24T16:05:59.927Z,0.30
2023-08-24T16:08:28.212Z,0.30
2023-08-24T16:10:58.854Z,0.70
2023-08-24T16:13:26.859Z,0.70
2023-08-24T16:15:54.429Z,1.00
2023-08-24T16:18:25.726Z,0.90
2023-08-24T16:20:53.872Z,0.80
2023-08-24T16:23:21.524Z,0.70
2023-08-24T16:25:49.489Z,1.10
2023-08-24T16:28:17.172Z,0.90
2023-08-24T16:30:48.476Z,0.70
2023-08-24T16:33:18.620Z,0.70
2023-08-24T16:35:47.783Z,0.70
2023-08-24T16:38:16.497Z,0.60
2023-08-24T16:40:47.039Z,0.70
2023-08-24T16:43:14.704Z,0.70
2023-08-24T16:45:42.353Z,0.60
2023-08-24T16:48:10.051Z,0.80
2023-08-24T16:50:37.775Z,0.70
2023-08-24T16:53:05.539Z,0.90
2023-08-24T16:55:33.130Z,0.70
2023-08-24T16:58:00.859Z,0.80
2023-08-24T17:00:28.791Z,0.50
2023-08-24T17:02:56.674Z,0.60
2023-08-24T17:05:24.433Z,0.70
2023-08-24T17:08:09.206Z,0.90
2023-08-24T17:10:40.158Z,0.90
2023-08-24T17:13:08.225Z,0.90
2023-08-24T17:15:35.921Z,1.10
2023-08-24T17:18:04.346Z,0.50
2023-08-24T17:20:39.422Z,0.60
2023-08-24T17:23:07.276Z,0.70
2023-08-24T17:25:34.916Z,0.70
2023-08-24T17:28:02.551Z,0.80
2023-08-24T17:30:30.394Z,0.90
2023-08-24T17:32:59.880Z,1.20
2023-08-24T17:35:29.777Z,1.20
2023-08-24T17:37:58.468Z,0.90
2023-08-24T17:40:26.348Z,1.10
2023-08-24T17:42:54.236Z,1.40
2023-08-24T17:45:24.507Z,1.20
2023-08-24T17:47:52.799Z,1.00
2023-08-24T17:50:20.958Z,1.20
2023-08-24T17:52:48.744Z,1.10
2023-08-24T17:55:16.464Z,1.20
2023-08-24T17:57:44.241Z,1.10
2023-08-24T18:00:12.520Z,1.10
2023-08-24T18:02:42.243Z,1.40
2023-08-24T18:05:10.113Z,1.40
2023-08-24T18:07:37.799Z,1.00
2023-08-24T18:10:05.953Z,1.40
2023-08-24T18:12:33.563Z,1.10
2023-08-24T18:15:01.144Z,1.50
2023-08-24T18:17:28.901Z,1.30
2023-08-24T18:19:56.634Z,1.30
2023-08-24T18:22:24.267Z,1.40
2023-08-24T18:24:51.838Z,1.30
2023-08-24T18:27:19.552Z,1.10
2023-08-24T18:29:47.372Z,1.40
2023-08-24T18:32:14.906Z,1.30
2023-08-24T18:34:42.482Z,1.50
2023-08-24T18:37:11.684Z,1.30
2023-08-24T18:39:39.535Z,1.50
2023-08-24T18:42:07.420Z,1.30
2023-08-24T18:44:35.290Z,1.20
2023-08-24T18:47:06.035Z,1.30
2023-08-24T18:49:33.727Z,1.10
2023-08-24T18:52:01.751Z,1.30
2023-08-24T18:54:30.982Z,1.30
2023-08-24T18:57:00.239Z,1.50
2023-08-24T18:59:28.740Z,1.10
2023-08-24T19:01:56.353Z,1.40
2023-08-24T19:04:24.154Z,1.40
2023-08-24T19:06:53.389Z,1.40
2023-08-24T19:09:21.049Z,1.20
2023-08-24T19:11:48.851Z,1.50
2023-08-24T19:14:16.618Z,1.40
2023-08-24T19:16:45.242Z,1.30
2023-08-24T19:19:12.809Z,1.40
2023-08-24T19:21:40.393Z,1.40
2023-08-24T19:24:10.958Z,1.80
2023-08-24T19:26:38.611Z,1.80
2023-08-24T19:29:08.170Z,1.70
2023-08-24T19:31:36.115Z,1.70
2023-08-24T19:34:04.316Z,1.80
2023-08-24T19:36:31.901Z,1.90
2023-08-24T19:38:59.466Z,1.80
2023-08-24T19:41:27.129Z,1.80
2023-08-24T19:43:54.816Z,1.90
2023-08-24T19:46:22.454Z,1.70
2023-08-24T19:48:50.171Z,1.70
2023-08-24T19:51:17.815Z,1.80
2023-08-24T19:53:45.473Z,1.50
2023-08-24T19:56:13.107Z,1.60
2023-08-24T19:58:40.767Z,1.60
2023-08-24T20:01:08.694Z,1.80
2023-08-24T20:03:36.569Z,1.50
2023-08-24T20:06:19.797Z,1.60
2023-08-24T20:08:47.655Z,2.00
2023-08-24T20:11:15.833Z,1.70
2023-08-24T20:13:43.971Z,1.70
2023-08-24T20:16:11.772Z,1.60
2023-08-24T20:18:40.689Z,1.60
2023-08-24T20:21:09.831Z,1.80
2023-08-24T20:23:41.159Z,1.80
2023-08-24T20:26:14.020Z,1.60
2023-08-24T20:28:41.995Z,1.90
2023-08-24T20:31:10.438Z,1.60
2023-08-24T20:33:39.228Z,1.50
2023-08-24T20:36:06.885Z,1.60
2023-08-24T20:38:34.621Z,1.80
2023-08-24T20:41:04.065Z,1.90
2023-08-24T20:43:31.914Z,1.80
2023-08-24T20:45:59.884Z,1.80
2023-08-24T20:48:27.516Z,1.40
2023-08-24T20:50:59.644Z,2.00
2023-08-24T20:53:27.362Z,1.50
2023-08-24T20:55:55.700Z,1.70
2023-08-24T20:58:23.409Z,1.70
2023-08-24T21:00:53.421Z,1.20
2023-08-24T21:03:21.352Z,1.60
2023-08-24T21:05:49.506Z,1.50
2023-08-24T21:08:17.195Z,1.90
2023-08-24T21:10:44.883Z,1.70
2023-08-24T21:13:12.918Z,1.40
2023-08-24T21:15:40.486Z,1.60
2023-08-24T21:18:08.530Z,1.50
2023-08-24T21:20:36.340Z,1.60
2023-08-24T21:23:04.691Z,1.50
2023-08-24T21:25:32.759Z,1.80
2023-08-24T21:28:00.571Z,1.60
2023-08-24T21:30:28.312Z,1.80
2023-08-24T21:32:56.326Z,1.60
2023-08-24T21:35:24.046Z,2.10
2023-08-24T21:37:51.919Z,2.10
2023-08-24T21:40:23.281Z,2.90
2023-08-24T21:42:51.163Z,2.20
2023-08-24T21:45:19.223Z,2.20
2023-08-24T21:47:47.075Z,1.90
2023-08-24T21:50:14.775Z,2.50
2023-08-24T21:52:42.445Z,2.00
2023-08-24T21:55:10.140Z,2.00
2023-08-24T21:57:37.797Z,1.80
2023-08-24T22:00:06.577Z,2.40
2023-08-24T22:02:34.184Z,1.80
2023-08-24T22:05:02.055Z,2.00
2023-08-24T22:07:29.726Z,2.10
2023-08-24T22:09:57.534Z,1.80
2023-08-24T22:12:25.298Z,2.00
2023-08-24T22:14:52.910Z,2.30
2023-08-24T22:17:20.540Z,2.30
2023-08-24T22:19:48.277Z,1.80
2023-08-24T22:22:15.988Z,2.00
2023-08-24T22:24:43.729Z,1.40
2023-08-24T22:27:11.315Z,1.50
2023-08-24T22:29:39.052Z,1.80
2023-08-24T22:32:10.633Z,1.70
2023-08-24T22:34:39.225Z,1.50
2023-08-24T22:37:06.852Z,1.70
2023-08-24T22:39:34.532Z,2.00
2023-08-24T22:42:02.100Z,1.80
2023-08-24T22:44:29.711Z,1.70
2023-08-24T22:46:57.771Z,1.70
2023-08-24T22:49:25.384Z,1.40
2023-08-24T22:51:52.984Z,1.80
2023-08-24T22:54:20.594Z,1.70
2023-08-24T22:56:48.350Z,1.80
2023-08-24T22:59:15.988Z,1.70
2023-08-24T23:01:43.990Z,1.90
2023-08-24T23:04:11.727Z,1.70
2023-08-24T23:07:06.475Z,1.50
2023-08-24T23:09:36.880Z,2.10
2023-08-24T23:12:05.121Z,1.90
2023-08-24T23:14:35.149Z,1.90
2023-08-24T23:17:03.796Z,2.10
2023-08-24T23:19:35.264Z,1.80
2023-08-24T23:22:03.937Z,1.80
2023-08-24T23:24:49.143Z,2.30
2023-08-24T23:27:18.934Z,2.20
2023-08-24T23:29:47.549Z,1.90
2023-08-24T23:32:17.407Z,1.70
2023-08-24T23:34:45.446Z,1.90
2023-08-24T23:37:13.231Z,1.80
2023-08-24T23:39:41.038Z,1.90
2023-08-24T23:42:08.769Z,2.00
2023-08-24T23:44:36.426Z,2.10
2023-08-24T23:47:04.398Z,2.40
2023-08-24T23:49:32.001Z,1.90
2023-08-24T23:51:59.596Z,1.80
2023-08-24T23:54:27.665Z,2.00
2023-08-24T23:56:55.249Z,1.80
2023-08-24T23:59:23.217Z,2.20
